Time;durP1;ratioP1;P1;durP2;ratioP2;P2;SDS_P1;SDS_P2;PMS_P1;PMS_P2;Temp;Humidity;BMP_temperature;BMP_pressure;BME280_temperature;BME280_humidity;BME280_pressure;Samples;Min_cycle;Max_cycle;Signal;HPM_P1;HPM_P2
2023/07/17 00:01:52;;;;;;;0.90;0.47;;;28.20;59.50;;;;;;4969596;28;22117;-86
2023/07/17 00:04:22;;;;;;;0.55;0.55;;;28.20;60.20;;;;;;4976838;28;20255;-85
2023/07/17 00:06:50;;;;;;;0.90;0.55;;;28.20;59.50;;;;;;4962971;28;20230;-86
2023/07/17 00:09:19;;;;;;;0.60;0.43;;;28.10;59.40;;;;;;4972600;28;20199;-84
2023/07/17 00:11:47;;;;;;;0.20;0.20;;;28.10;59.40;;;;;;4963019;28;20562;-85
2023/07/17 00:14:16;;;;;;;0.20;0.20;;;28.10;59.40;;;;;;4971311;28;20650;-85
2023/07/17 00:16:44;;;;;;;0.15;0.15;;;28.10;59.50;;;;;;4972011;28;20208;-84
2023/07/17 00:19:12;;;;;;;2.17;0.45;;;28.10;59.60;;;;;;4970410;28;20220;-82
2023/07/17 00:21:42;;;;;;;0.85;0.80;;;28.10;59.80;;;;;;4968481;28;20221;-82
2023/07/17 00:24:11;;;;;;;2.72;0.98;;;28.00;59.90;;;;;;4975964;28;20201;-84
2023/07/17 00:26:39;;;;;;;0.20;0.20;;;28.00;60.10;;;;;;4966671;28;20237;-84
2023/07/17 00:29:28;;;;;;;0.35;0.35;;;28.00;60.40;;;;;;4961156;28;20190;-83
2023/07/17 00:31:57;;;;;;;0.73;0.20;;;27.90;60.40;;;;;;4965926;28;20257;-82
2023/07/17 00:34:26;;;;;;;1.02;0.45;;;27.90;60.50;;;;;;4968998;28;20194;-83
2023/07/17 00:36:56;;;;;;;0.60;0.25;;;27.80;60.70;;;;;;4966242;28;20287;-85
2023/07/17 00:39:25;;;;;;;0.43;0.38;;;27.80;60.90;;;;;;4969799;28;20198;-86
2023/07/17 00:41:53;;;;;;;0.15;0.15;;;27.80;61.90;;;;;;4970698;28;20582;-84
2023/07/17 00:44:22;;;;;;;0.90;0.50;;;27.70;61.60;;;;;;4959732;28;20199;-84
2023/07/17 00:46:52;;;;;;;0.40;0.38;;;27.70;61.90;;;;;;4968656;28;20216;-85
2023/07/17 00:49:23;;;;;;;0.40;0.38;;;27.70;61.90;;;;;;4968416;28;20256;-86
2023/07/17 00:51:53;;;;;;;0.43;0.43;;;27.60;61.90;;;;;;4962832;28;20194;-84
2023/07/17 00:54:23;;;;;;;0.88;0.40;;;27.60;61.80;;;;;;4967231;28;20194;-83
2023/07/17 00:56:53;;;;;;;0.57;0.57;;;27.60;61.90;;;;;;4966570;28;20194;-84
2023/07/17 00:59:22;;;;;;;0.32;0.32;;;27.60;61.90;;;;;;4965968;28;20204;-85
2023/07/17 01:01:50;;;;;;;0.30;0.30;;;27.50;61.90;;;;;;4962678;28;20213;-86
2023/07/17 01:04:19;;;;;;;5.82;0.57;;;27.60;62.10;;;;;;4964806;28;20193;-85
2023/07/17 01:06:47;;;;;;;0.35;0.35;;;27.50;62.20;;;;;;4969359;28;20284;-83
2023/07/17 01:09:17;;;;;;;0.40;0.30;;;27.50;62.60;;;;;;4964776;28;20216;-84
2023/07/17 01:11:47;;;;;;;0.63;0.32;;;27.40;62.80;;;;;;4963786;28;20213;-84
2023/07/17 01:14:17;;;;;;;0.22;0.20;;;27.30;62.70;;;;;;4968902;28;20253;-86
2023/07/17 01:16:46;;;;;;;0.68;0.68;;;27.30;62.90;;;;;;4966031;28;20199;-82
2023/07/17 01:19:14;;;;;;;0.20;0.20;;;27.30;63.00;;;;;;4964786;28;20209;-84
2023/07/17 01:21:53;;;;;;;0.50;0.50;;;27.20;63.00;;;;;;4970781;28;20250;-84
2023/07/17 01:24:23;;;;;;;0.22;0.20;;;27.20;63.70;;;;;;4968145;28;20193;-84
2023/07/17 01:26:51;;;;;;;0.40;0.40;;;27.20;63.80;;;;;;4963589;28;20242;-85
2023/07/17 01:29:20;;;;;;;0.77;0.70;;;27.10;63.80;;;;;;4968297;28;20201;-84
2023/07/17 01:31:48;;;;;;;0.40;0.40;;;27.10;63.90;;;;;;4970463;28;20209;-85
2023/07/17 01:34:16;;;;;;;0.73;0.43;;;27.10;64.00;;;;;;4961678;28;20194;-83
2023/07/17 01:36:45;;;;;;;2.00;0.75;;;27.10;64.30;;;;;;4965850;28;20209;-84
2023/07/17 01:39:14;;;;;;;0.35;0.35;;;27.10;64.30;;;;;;4968812;28;20198;-84
2023/07/17 01:41:44;;;;;;;0.25;0.25;;;27.00;64.40;;;;;;4966740;28;20222;-85
2023/07/17 01:44:13;;;;;;;0.30;0.30;;;27.00;64.60;;;;;;4966317;28;20225;-85
2023/07/17 01:46:41;;;;;;;0.30;0.30;;;27.00;64.70;;;;;;4967941;28;20190;-84
2023/07/17 01:49:10;;;;;;;0.40;0.30;;;27.00;64.70;;;;;;4969202;28;20198;-85
2023/07/17 01:51:38;;;;;;;0.45;0.45;;;27.00;64.90;;;;;;4973076;28;20202;-86
2023/07/17 01:54:07;;;;;;;0.50;0.35;;;26.90;64.90;;;;;;4970013;28;20281;-85
2023/07/17 01:56:35;;;;;;;0.20;0.20;;;26.90;65.20;;;;;;4971846;28;20643;-86
2023/07/17 01:59:05;;;;;;;0.70;0.50;;;26.90;65.50;;;;;;4972314;28;20281;-81
2023/07/17 02:01:33;;;;;;;0.50;0.50;;;26.90;65.90;;;;;;4969397;28;20281;-85
2023/07/17 02:04:02;;;;;;;2.47;0.57;;;26.80;66.20;;;;;;4972702;28;20194;-85
2023/07/17 02:06:31;;;;;;;0.82;0.82;;;26.70;66.40;;;;;;4971063;28;20690;-83
2023/07/17 02:08:59;;;;;;;0.82;0.77;;;26.70;66.90;;;;;;4971255;28;20205;-82
2023/07/17 02:11:30;;;;;;;0.22;0.22;;;26.70;67.00;;;;;;4971413;28;20220;-84
2023/07/17 02:13:59;;;;;;;0.30;0.30;;;26.70;66.90;;;;;;4968700;28;20198;-82
2023/07/17 02:16:29;;;;;;;0.65;0.43;;;26.70;67.00;;;;;;4967030;28;20202;-85
2023/07/17 02:18:58;;;;;;;1.20;0.40;;;26.60;66.90;;;;;;4970222;28;21899;-83
2023/07/17 02:21:27;;;;;;;2.88;0.85;;;26.60;67.10;;;;;;4971282;28;20297;-85
2023/07/17 02:23:55;;;;;;;0.60;0.47;;;26.50;67.30;;;;;;4970567;28;20658;-82
2023/07/17 02:26:24;;;;;;;0.73;0.60;;;26.50;67.40;;;;;;4972970;28;20232;-84
2023/07/17 02:28:53;;;;;;;3.55;1.15;;;26.50;67.40;;;;;;4972633;28;20567;-83
2023/07/17 02:31:21;;;;;;;0.55;0.55;;;26.50;67.40;;;;;;4971652;28;20643;-83
2023/07/17 02:33:51;;;;;;;0.65;0.35;;;26.50;67.40;;;;;;4970330;28;20198;-83
2023/07/17 02:36:20;;;;;;;0.40;0.40;;;26.50;67.40;;;;;;4971907;28;20200;-86
2023/07/17 02:38:48;;;;;;;1.10;0.95;;;26.40;67.40;;;;;;4971647;28;20667;-83
2023/07/17 02:41:17;;;;;;;1.20;0.52;;;26.40;67.50;;;;;;4971445;28;20198;-86
2023/07/17 02:43:46;;;;;;;0.30;0.30;;;26.40;67.90;;;;;;4971116;28;20264;-84
2023/07/17 02:46:14;;;;;;;0.28;0.28;;;26.40;68.00;;;;;;4964929;28;20193;-85
2023/07/17 02:48:42;;;;;;;0.50;0.50;;;26.40;68.20;;;;;;4969476;28;20228;-85
2023/07/17 02:51:12;;;;;;;0.28;0.22;;;26.30;68.10;;;;;;4971190;28;20197;-85
2023/07/17 02:53:41;;;;;;;0.57;0.40;;;26.30;68.10;;;;;;4966990;28;20202;-83
2023/07/17 02:56:10;;;;;;;0.40;0.40;;;26.30;68.40;;;;;;4961842;28;20332;-83
2023/07/17 02:58:42;;;;;;;0.65;0.63;;;26.30;68.40;;;;;;4975352;28;20522;-85
2023/07/17 03:01:11;;;;;;;0.20;0.20;;;26.20;68.50;;;;;;4969434;28;20197;-84
2023/07/17 03:03:40;;;;;;;0.55;0.55;;;26.20;68.60;;;;;;4972874;28;20568;-84
2023/07/17 03:06:08;;;;;;;0.35;0.35;;;26.20;68.90;;;;;;4968087;28;20647;-84
2023/07/17 03:08:38;;;;;;;1.25;0.50;;;26.20;68.90;;;;;;4970020;28;20221;-83
2023/07/17 03:11:06;;;;;;;1.17;0.95;;;26.10;68.90;;;;;;4967790;28;20671;-84
2023/07/17 03:13:35;;;;;;;0.32;0.30;;;26.10;68.40;;;;;;4970337;28;20224;-86
2023/07/17 03:16:03;;;;;;;0.63;0.63;;;26.10;68.90;;;;;;4969754;28;20201;-86
2023/07/17 03:18:32;;;;;;;0.70;0.65;;;26.10;68.80;;;;;;4965683;28;20551;-86
2023/07/17 03:21:00;;;;;;;0.40;0.40;;;26.10;69.00;;;;;;4966544;28;20682;-84
2023/07/17 03:23:29;;;;;;;0.30;0.30;;;26.10;69.20;;;;;;4968403;28;20223;-86
2023/07/17 03:26:00;;;;;;;0.98;0.88;;;26.10;69.40;;;;;;4970026;28;20229;-85
2023/07/17 03:28:28;;;;;;;0.50;0.50;;;26.10;69.40;;;;;;4967113;28;20209;-85
2023/07/17 03:30:57;;;;;;;0.40;0.30;;;26.10;69.40;;;;;;4968933;28;20198;-85
2023/07/17 03:33:26;;;;;;;0.60;0.60;;;26.00;69.30;;;;;;4968696;28;20206;-85
2023/07/17 03:35:54;;;;;;;0.30;0.30;;;26.00;69.30;;;;;;4963115;28;20619;-84
2023/07/17 03:38:23;;;;;;;1.10;0.68;;;26.00;69.40;;;;;;4970524;28;20198;-85
2023/07/17 03:40:52;;;;;;;0.40;0.40;;;26.10;69.50;;;;;;4963115;28;20205;-85
2023/07/17 03:43:21;;;;;;;0.80;0.57;;;26.10;69.90;;;;;;4971483;28;20244;-84
2023/07/17 03:45:52;;;;;;;0.28;0.28;;;26.10;70.00;;;;;;4968062;28;20201;-82
2023/07/17 03:48:20;;;;;;;0.45;0.45;;;26.00;70.10;;;;;;4971032;28;20198;-83
2023/07/17 03:50:49;;;;;;;0.45;0.45;;;26.00;70.50;;;;;;4968762;28;20202;-85
2023/07/17 03:53:17;;;;;;;0.45;0.45;;;26.10;70.50;;;;;;4969950;28;20204;-84
2023/07/17 03:55:46;;;;;;;0.52;0.52;;;26.10;70.50;;;;;;4969368;28;20205;-84
2023/07/17 03:58:14;;;;;;;0.40;0.40;;;26.10;70.60;;;;;;4971130;28;20256;-85
2023/07/17 04:00:44;;;;;;;1.17;0.52;;;26.00;70.50;;;;;;4967999;28;20212;-84
2023/07/17 04:03:13;;;;;;;0.25;0.25;;;26.10;70.70;;;;;;4963926;28;20213;-83
2023/07/17 04:05:41;;;;;;;0.28;0.28;;;26.10;70.70;;;;;;4965867;28;20198;-82
2023/07/17 04:08:10;;;;;;;0.73;0.45;;;26.10;71.20;;;;;;4970827;28;20197;-82
2023/07/17 04:10:38;;;;;;;2.25;0.93;;;26.10;71.10;;;;;;4965539;28;20193;-82
2023/07/17 04:13:07;;;;;;;0.85;0.52;;;26.10;71.40;;;;;;4962336;28;20256;-85
2023/07/17 04:15:36;;;;;;;0.40;0.40;;;26.10;71.30;;;;;;4967610;28;20209;-86
2023/07/17 04:18:06;;;;;;;0.77;0.70;;;26.20;71.30;;;;;;4969888;28;20678;-84
2023/07/17 04:20:37;;;;;;;0.93;0.73;;;26.20;71.10;;;;;;4964939;28;20201;-84
2023/07/17 04:23:06;;;;;;;0.30;0.30;;;26.20;70.90;;;;;;4971371;28;20201;-85
2023/07/17 04:25:34;;;;;;;0.28;0.28;;;26.30;71.10;;;;;;4969148;28;20230;-84
2023/07/17 04:28:03;;;;;;;0.55;0.40;;;26.30;71.20;;;;;;4971715;28;20202;-85
2023/07/17 04:30:32;;;;;;;0.35;0.35;;;26.40;71.00;;;;;;4964585;28;20206;-85
2023/07/17 04:33:00;;;;;;;1.30;0.60;;;26.40;71.10;;;;;;4965202;28;20198;-85
2023/07/17 04:35:35;;;;;;;0.15;0.15;;;26.40;70.80;;;;;;4965282;28;20208;-83
2023/07/17 04:38:04;;;;;;;0.50;0.40;;;26.50;70.80;;;;;;4970537;28;20204;-86
2023/07/17 04:40:33;;;;;;;0.63;0.63;;;26.50;70.80;;;;;;4966080;28;20663;-84
2023/07/17 04:43:01;;;;;;;0.43;0.30;;;26.60;70.90;;;;;;4970073;28;20197;-84
2023/07/17 04:45:30;;;;;;;1.55;0.40;;;26.70;70.80;;;;;;4964793;28;20212;-87
2023/07/17 04:47:58;;;;;;;0.57;0.47;;;26.70;70.70;;;;;;4967025;28;20213;-83
2023/07/17 04:50:27;;;;;;;0.88;0.38;;;26.70;70.70;;;;;;4965283;28;20236;-83
2023/07/17 04:52:57;;;;;;;0.30;0.30;;;26.80;70.70;;;;;;4964568;28;20644;-83
2023/07/17 04:55:28;;;;;;;0.50;0.40;;;26.80;70.60;;;;;;4960847;28;20657;-83
2023/07/17 04:57:57;;;;;;;0.45;0.30;;;26.90;70.50;;;;;;4959112;28;20313;-84
2023/07/17 05:00:25;;;;;;;0.40;0.40;;;26.90;70.50;;;;;;4963115;28;20237;-87
2023/07/17 05:02:54;;;;;;;0.32;0.32;;;27.00;70.40;;;;;;4958551;28;20198;-84
2023/07/17 05:05:22;;;;;;;0.40;0.40;;;27.10;70.30;;;;;;4970320;28;20233;-86
2023/07/17 05:07:51;;;;;;;0.30;0.30;;;27.10;70.30;;;;;;4965761;28;20678;-86
2023/07/17 05:10:21;;;;;;;1.27;0.82;;;27.20;70.20;;;;;;4963360;28;20206;-86
2023/07/17 05:12:55;;;;;;;0.35;0.35;;;27.20;70.20;;;;;;4966980;28;20265;-90
2023/07/17 05:15:24;;;;;;;0.65;0.47;;;27.30;70.00;;;;;;4964196;28;20673;-87
2023/07/17 05:17:52;;;;;;;0.30;0.30;;;27.30;70.10;;;;;;4959214;28;20202;-88
2023/07/17 05:20:25;;;;;;;0.50;0.50;;;27.40;70.10;;;;;;4968420;28;20639;-88
2023/07/17 05:22:53;;;;;;;0.28;0.28;;;27.40;70.30;;;;;;4970724;28;20194;-87
2023/07/17 05:25:24;;;;;;;0.43;0.38;;;27.50;70.20;;;;;;4972748;28;20604;-87
2023/07/17 05:27:52;;;;;;;0.30;0.30;;;27.50;70.10;;;;;;4968216;28;20194;-87
2023/07/17 05:30:21;;;;;;;0.40;0.40;;;27.60;69.90;;;;;;4973288;28;20194;-88
2023/07/17 05:32:50;;;;;;;0.80;0.60;;;27.70;69.90;;;;;;4966915;28;20197;-85
2023/07/17 05:35:18;;;;;;;0.80;0.68;;;27.70;69.70;;;;;;4969049;28;20894;-87
2023/07/17 05:37:47;;;;;;;1.00;0.47;;;27.70;69.50;;;;;;4969946;28;20202;-85
2023/07/17 05:40:16;;;;;;;0.30;0.30;;;27.80;69.40;;;;;;4968303;28;20198;-87
2023/07/17 05:42:46;;;;;;;0.82;0.40;;;27.80;69.20;;;;;;4969985;28;20246;-84
2023/07/17 05:45:15;;;;;;;0.40;0.40;;;27.90;69.20;;;;;;4970969;28;20690;-84
2023/07/17 05:47:43;;;;;;;0.38;0.38;;;27.90;69.00;;;;;;4971132;28;20194;-83
2023/07/17 05:50:12;;;;;;;1.10;0.82;;;28.00;68.90;;;;;;4970720;28;20568;-86
2023/07/17 05:52:41;;;;;;;0.45;0.40;;;28.00;68.90;;;;;;4965217;28;20213;-84
2023/07/17 05:55:09;;;;;;;0.55;0.52;;;28.10;68.80;;;;;;4970148;28;20813;-84
2023/07/17 05:57:38;;;;;;;0.85;0.68;;;28.20;69.00;;;;;;4974492;28;20205;-83
2023/07/17 06:00:11;;;;;;;0.45;0.45;;;28.20;69.00;;;;;;4967955;28;20545;-86
2023/07/17 06:02:40;;;;;;;0.55;0.55;;;28.20;68.90;;;;;;4975197;28;20201;-83
2023/07/17 06:05:09;;;;;;;2.42;0.90;;;28.30;68.80;;;;;;4969890;28;20225;-83
2023/07/17 06:07:39;;;;;;;0.55;0.43;;;28.30;68.60;;;;;;4968915;28;20201;-85
2023/07/17 06:10:08;;;;;;;0.38;0.38;;;28.40;68.60;;;;;;4967612;28;20223;-83
2023/07/17 06:12:37;;;;;;;0.85;0.85;;;28.50;68.50;;;;;;4972406;28;20286;-83
2023/07/17 06:15:08;;;;;;;1.55;1.08;;;28.50;68.40;;;;;;4961440;28;20397;-85
2023/07/17 06:17:37;;;;;;;2.00;1.17;;;28.60;68.50;;;;;;4971947;28;20281;-87
2023/07/17 06:20:08;;;;;;;0.30;0.30;;;28.60;68.40;;;;;;4972738;28;20729;-84
2023/07/17 06:22:37;;;;;;;0.77;0.57;;;28.70;68.60;;;;;;4973361;28;20193;-86
2023/07/17 06:25:06;;;;;;;1.30;0.40;;;28.80;68.60;;;;;;4964548;28;21989;-84
2023/07/17 06:27:35;;;;;;;7.78;0.63;;;28.80;68.50;;;;;;4971194;28;20198;-92
2023/07/17 06:30:04;;;;;;;1.15;0.50;;;28.90;68.40;;;;;;4965581;28;20202;-82
2023/07/17 06:32:34;;;;;;;2.28;0.85;;;29.00;68.10;;;;;;4968402;28;20579;-82
2023/07/17 06:35:05;;;;;;;1.90;1.00;;;29.10;67.90;;;;;;4966603;28;20201;-81
2023/07/17 06:37:34;;;;;;;0.50;0.50;;;29.10;67.20;;;;;;4969702;28;20194;-83
2023/07/17 06:40:03;;;;;;;2.78;0.90;;;29.20;67.20;;;;;;4971343;28;20201;-83
2023/07/17 06:42:33;;;;;;;0.40;0.40;;;29.30;67.10;;;;;;4972282;28;20802;-83
2023/07/17 06:45:02;;;;;;;0.40;0.40;;;29.30;66.70;;;;;;4968063;28;20308;-83
2023/07/17 06:47:31;;;;;;;2.65;0.80;;;29.40;66.60;;;;;;4973302;28;20198;-83
2023/07/17 06:50:07;;;;;;;0.90;0.65;;;29.50;66.50;;;;;;4968433;28;20190;-82
2023/07/17 06:52:38;;;;;;;0.90;0.80;;;29.50;66.30;;;;;;4967013;28;20190;-84
2023/07/17 06:55:08;;;;;;;0.57;0.55;;;29.60;66.30;;;;;;4968035;28;20197;-83
2023/07/17 06:57:37;;;;;;;0.40;0.40;;;29.70;66.40;;;;;;4968131;28;20196;-84
2023/07/17 07:00:06;;;;;;;2.38;1.48;;;29.70;66.40;;;;;;4966871;28;20208;-84
2023/07/17 07:02:35;;;;;;;0.47;0.47;;;29.80;66.30;;;;;;4962231;28;20202;-83
2023/07/17 07:05:09;;;;;;;0.50;0.50;;;29.80;65.80;;;;;;4970265;28;20209;-83
2023/07/17 07:07:38;;;;;;;0.20;0.20;;;29.90;65.80;;;;;;4977316;28;20217;-82
2023/07/17 07:10:07;;;;;;;0.20;0.20;;;30.00;65.80;;;;;;4970825;28;20193;-83
2023/07/17 07:12:36;;;;;;;1.00;0.55;;;30.00;65.80;;;;;;4967408;28;20214;-83
2023/07/17 07:15:05;;;;;;;0.40;0.40;;;30.10;65.80;;;;;;4968909;28;20198;-81
2023/07/17 07:17:34;;;;;;;0.50;0.50;;;30.10;65.60;;;;;;4969269;28;20288;-84
2023/07/17 07:20:03;;;;;;;0.50;0.40;;;30.20;65.10;;;;;;4970526;28;20201;-82
2023/07/17 07:22:32;;;;;;;1.08;0.68;;;30.30;65.00;;;;;;4970504;28;20212;-83
2023/07/17 07:25:01;;;;;;;0.43;0.43;;;30.30;64.90;;;;;;4966573;28;20226;-82
2023/07/17 07:27:31;;;;;;;0.73;0.70;;;30.30;64.70;;;;;;4963192;28;20557;-82
2023/07/17 07:29:59;;;;;;;0.40;0.40;;;30.40;64.50;;;;;;4964592;28;20194;-84
2023/07/17 07:32:28;;;;;;;0.50;0.50;;;30.50;64.50;;;;;;4970212;28;20209;-83
2023/07/17 07:34:56;;;;;;;0.40;0.40;;;30.50;64.50;;;;;;4968254;28;20204;-85
2023/07/17 07:37:27;;;;;;;0.40;0.40;;;30.60;64.40;;;;;;4971941;28;20727;-90
2023/07/17 07:39:57;;;;;;;0.38;0.38;;;30.60;64.60;;;;;;4970323;28;20367;-90
2023/07/17 07:42:26;;;;;;;1.05;0.95;;;30.70;64.40;;;;;;4970925;28;20205;-86
2023/07/17 07:44:55;;;;;;;1.08;0.90;;;30.70;64.10;;;;;;4968699;28;20589;-87
2023/07/17 07:47:23;;;;;;;0.40;0.40;;;30.70;63.80;;;;;;4970780;28;20284;-87
2023/07/17 07:49:52;;;;;;;0.50;0.43;;;30.80;63.80;;;;;;4971749;28;20561;-87
2023/07/17 07:52:20;;;;;;;0.63;0.52;;;30.90;63.40;;;;;;4970554;28;20193;-86
2023/07/17 07:54:48;;;;;;;1.02;0.82;;;30.90;63.20;;;;;;4968046;28;20621;-89
2023/07/17 07:57:18;;;;;;;1.15;0.60;;;31.00;62.90;;;;;;4973331;28;20198;-84
2023/07/17 07:59:47;;;;;;;0.50;0.50;;;31.00;62.50;;;;;;4966686;28;20197;-87
2023/07/17 08:02:15;;;;;;;0.65;0.65;;;31.10;61.70;;;;;;4962451;28;20212;-84
2023/07/17 08:04:44;;;;;;;1.13;0.60;;;31.10;62.00;;;;;;4965478;28;20264;-84
2023/07/17 08:07:12;;;;;;;3.15;1.23;;;31.20;62.00;;;;;;4961740;28;20201;-82
2023/07/17 08:09:41;;;;;;;0.43;0.43;;;31.30;61.70;;;;;;4970582;28;20662;-82
2023/07/17 08:12:10;;;;;;;0.68;0.65;;;31.40;61.90;;;;;;4970213;28;20194;-84
2023/07/17 08:14:39;;;;;;;0.47;0.47;;;31.40;60.50;;;;;;4963958;28;20194;-82
2023/07/17 08:17:08;;;;;;;3.35;0.77;;;31.40;60.80;;;;;;4965621;28;20209;-82
2023/07/17 08:19:37;;;;;;;1.27;1.08;;;31.50;61.00;;;;;;4968224;28;20193;-83
2023/07/17 08:22:05;;;;;;;0.55;0.45;;;31.50;61.10;;;;;;4972859;28;20252;-84
2023/07/17 08:24:34;;;;;;;0.73;0.73;;;31.60;60.40;;;;;;4962368;28;20235;-85
2023/07/17 08:27:02;;;;;;;0.93;0.93;;;31.60;60.50;;;;;;4968978;28;20256;-84
2023/07/17 08:29:31;;;;;;;1.33;0.60;;;31.70;60.80;;;;;;4967666;28;20202;-86
2023/07/17 08:32:03;;;;;;;0.50;0.50;;;31.80;60.90;;;;;;5142054;23;20234;-88
2023/07/17 08:34:49;;;;;;;0.73;0.70;;;31.80;60.90;;;;;;4942362;29;20198;-90
2023/07/17 08:37:29;;;;;;;0.40;0.40;;;31.90;60.50;;;;;;4940923;28;20205;-84
2023/07/17 08:39:58;;;;;;;0.80;0.57;;;31.90;60.40;;;;;;4940970;29;20203;-80
2023/07/17 08:42:26;;;;;;;1.92;0.63;;;32.00;60.50;;;;;;4942277;29;20294;-81
2023/07/17 08:44:55;;;;;;;1.60;0.88;;;32.00;60.50;;;;;;4939161;28;20203;-82
2023/07/17 08:47:26;;;;;;;0.82;0.70;;;32.10;60.70;;;;;;4941538;28;20206;-83
2023/07/17 08:49:56;;;;;;;0.85;0.80;;;32.20;60.60;;;;;;4942355;28;20643;-83
2023/07/17 08:52:27;;;;;;;0.80;0.70;;;32.20;60.20;;;;;;4940612;28;20564;-82
2023/07/17 08:54:56;;;;;;;0.60;0.50;;;32.20;59.80;;;;;;4941887;28;20203;-81
2023/07/17 08:57:25;;;;;;;0.60;0.32;;;32.30;59.60;;;;;;4945418;28;20209;-83
2023/07/17 08:59:56;;;;;;;3.63;0.70;;;32.30;59.40;;;;;;4946160;29;20206;-83
2023/07/17 09:02:26;;;;;;;0.68;0.68;;;32.40;59.00;;;;;;4949520;29;20246;-84
2023/07/17 09:04:55;;;;;;;1.48;0.80;;;32.40;58.60;;;;;;4940251;29;20198;-82
2023/07/17 09:07:23;;;;;;;1.38;1.05;;;32.40;59.40;;;;;;4951808;29;20226;-83
2023/07/17 09:10:17;;;;;;;1.95;0.73;;;32.50;58.80;;;;;;4950700;29;20293;-82
2023/07/17 09:12:51;;;;;;;0.70;0.57;;;32.60;59.50;;;;;;4944531;28;20297;-82
2023/07/17 09:15:19;;;;;;;0.57;0.57;;;32.60;58.50;;;;;;4947239;29;20198;-82
2023/07/17 09:17:49;;;;;;;0.20;0.20;;;32.70;58.40;;;;;;4943679;29;20210;-84
2023/07/17 09:20:19;;;;;;;1.00;0.55;;;32.70;58.40;;;;;;4943590;29;20607;-83
2023/07/17 09:22:48;;;;;;;1.15;0.63;;;32.80;58.30;;;;;;4946788;29;20207;-85
2023/07/17 09:25:17;;;;;;;0.68;0.68;;;32.80;57.90;;;;;;4952664;29;20234;-83
2023/07/17 09:27:47;;;;;;;1.15;0.65;;;32.90;57.90;;;;;;4955848;28;20220;-82
2023/07/17 09:30:18;;;;;;;2.47;1.45;;;32.90;57.60;;;;;;4951040;28;20567;-82
2023/07/17 09:32:50;;;;;;;0.90;0.90;;;33.00;57.70;;;;;;4942644;29;21024;-84
2023/07/17 09:35:23;;;;;;;0.80;0.75;;;33.00;57.20;;;;;;4946631;28;20351;-83
2023/07/17 09:37:51;;;;;;;2.40;0.75;;;33.10;57.60;;;;;;4945986;28;20277;-84
2023/07/17 09:40:21;;;;;;;1.75;0.88;;;33.20;57.80;;;;;;4951554;28;20270;-83
2023/07/17 09:42:54;;;;;;;0.57;0.57;;;33.20;57.50;;;;;;4945938;28;20258;-84
2023/07/17 09:45:23;;;;;;;0.75;0.50;;;33.30;57.30;;;;;;4949729;29;20202;-84
2023/07/17 09:47:53;;;;;;;1.60;0.85;;;33.30;57.50;;;;;;4955644;29;20230;-86
2023/07/17 09:50:26;;;;;;;1.65;0.93;;;33.40;57.30;;;;;;4940640;29;20202;-87
2023/07/17 09:52:56;;;;;;;0.75;0.50;;;33.50;57.30;;;;;;4949428;29;20253;-84
2023/07/17 09:55:27;;;;;;;0.30;0.30;;;33.50;57.30;;;;;;4942135;29;20652;-82
2023/07/17 09:57:59;;;;;;;0.80;0.75;;;33.60;57.20;;;;;;4946741;29;20202;-80
2023/07/17 10:00:28;;;;;;;0.70;0.70;;;33.60;57.10;;;;;;4939864;29;20198;-81
2023/07/17 10:03:08;;;;;;;0.50;0.50;;;33.70;56.90;;;;;;4954866;28;20199;-82
2023/07/17 10:05:38;;;;;;;0.70;0.60;;;33.80;56.30;;;;;;4942619;28;20199;-82
2023/07/17 10:08:08;;;;;;;0.80;0.40;;;33.80;55.90;;;;;;4948038;28;20202;-81
2023/07/17 10:10:37;;;;;;;0.85;0.70;;;33.80;55.40;;;;;;4941985;28;20234;-81
2023/07/17 10:13:07;;;;;;;1.90;0.80;;;33.90;54.50;;;;;;4943383;28;20190;-83
2023/07/17 10:15:36;;;;;;;1.25;1.00;;;34.00;54.50;;;;;;4949150;29;20217;-82
2023/07/17 10:18:11;;;;;;;0.85;0.50;;;34.00;54.40;;;;;;4939509;29;20195;-82
2023/07/17 10:20:40;;;;;;;1.58;0.80;;;34.10;54.80;;;;;;4948916;29;20194;-82
2023/07/17 10:23:22;;;;;;;0.30;0.30;;;34.10;54.40;;;;;;4954535;28;20570;-83
2023/07/17 10:25:51;;;;;;;0.40;0.35;;;34.10;53.20;;;;;;4949940;29;20210;-82
2023/07/17 10:28:31;;;;;;;1.00;0.75;;;34.20;53.90;;;;;;4949520;29;20207;-81
2023/07/17 10:31:08;;;;;;;0.38;0.38;;;34.30;54.00;;;;;;4943166;29;20286;-81
2023/07/17 10:33:39;;;;;;;0.40;0.40;;;34.40;54.30;;;;;;4946493;28;20200;-81
2023/07/17 10:36:14;;;;;;;0.40;0.40;;;34.40;53.90;;;;;;4943704;29;20577;-81
2023/07/17 10:38:42;;;;;;;0.68;0.68;;;34.50;53.90;;;;;;4951960;28;20190;-81
2023/07/17 10:41:26;;;;;;;0.40;0.35;;;34.50;54.10;;;;;;4942182;28;20203;-80
2023/07/17 10:43:56;;;;;;;1.17;0.77;;;34.70;54.20;;;;;;4947089;28;20191;-81
2023/07/17 10:46:44;;;;;;;0.70;0.70;;;34.70;54.20;;;;;;4944003;28;20836;-81
2023/07/17 10:49:16;;;;;;;0.90;0.50;;;34.80;53.40;;;;;;4946853;28;20214;-79
2023/07/17 10:51:45;;;;;;;2.28;0.57;;;34.80;53.00;;;;;;4948433;28;20205;-82
2023/07/17 10:54:14;;;;;;;0.95;0.75;;;34.90;53.20;;;;;;4944788;28;20228;-81
2023/07/17 10:56:45;;;;;;;0.40;0.40;;;35.00;53.40;;;;;;4942133;29;20210;-82
2023/07/17 10:59:15;;;;;;;0.70;0.70;;;35.00;53.10;;;;;;4939784;28;20203;-81
2023/07/17 11:01:44;;;;;;;1.10;0.90;;;35.00;52.50;;;;;;4943830;28;20212;-82
2023/07/17 11:04:14;;;;;;;0.75;0.45;;;35.10;52.80;;;;;;4951848;29;20205;-82
2023/07/17 11:06:43;;;;;;;0.60;0.60;;;35.10;52.80;;;;;;4938927;28;20221;-81
2023/07/17 11:09:11;;;;;;;0.65;0.65;;;35.20;52.10;;;;;;4947901;28;20213;-81
2023/07/17 11:11:39;;;;;;;0.80;0.70;;;35.20;52.10;;;;;;4946404;28;20199;-83
2023/07/17 11:14:08;;;;;;;2.03;0.55;;;35.30;52.20;;;;;;4946930;28;20206;-81
2023/07/17 11:16:40;;;;;;;0.82;0.60;;;35.30;52.40;;;;;;4942027;29;20715;-82
2023/07/17 11:19:08;;;;;;;0.65;0.65;;;35.40;52.30;;;;;;4943574;28;20210;-82
2023/07/17 11:21:38;;;;;;;1.73;0.90;;;35.40;52.30;;;;;;4944183;28;20206;-84
2023/07/17 11:24:08;;;;;;;0.60;0.60;;;35.40;51.70;;;;;;4952505;29;20616;-83
2023/07/17 11:26:38;;;;;;;1.67;1.02;;;35.40;51.70;;;;;;4946599;28;20205;-82
2023/07/17 11:29:07;;;;;;;1.00;0.93;;;35.60;51.80;;;;;;4940612;28;20213;-81
2023/07/17 11:31:36;;;;;;;0.80;0.63;;;35.50;51.80;;;;;;4945090;28;22387;-81
2023/07/17 11:34:07;;;;;;;1.95;0.90;;;35.60;51.90;;;;;;4950825;28;20640;-82
2023/07/17 11:36:42;;;;;;;1.23;0.70;;;35.60;51.70;;;;;;4941474;29;20198;-81
2023/07/17 11:39:11;;;;;;;0.73;0.65;;;35.70;51.70;;;;;;4947446;28;20301;-82
2023/07/17 11:41:45;;;;;;;1.17;0.60;;;35.70;51.80;;;;;;4938365;28;20205;-83
2023/07/17 11:44:16;;;;;;;1.00;0.88;;;35.70;51.50;;;;;;4946828;28;20185;-83
2023/07/17 11:46:45;;;;;;;0.73;0.60;;;35.80;51.10;;;;;;4952607;28;20198;-82
2023/07/17 11:49:14;;;;;;;1.00;0.80;;;35.80;51.10;;;;;;4948385;28;20294;-83
2023/07/17 11:51:44;;;;;;;1.00;0.93;;;35.80;50.90;;;;;;4953342;28;20221;-83
2023/07/17 11:54:15;;;;;;;1.02;0.93;;;35.70;50.70;;;;;;4945490;29;20202;-82
2023/07/17 11:56:45;;;;;;;0.75;0.50;;;35.60;50.70;;;;;;4949083;28;20197;-82
2023/07/17 11:59:18;;;;;;;0.50;0.50;;;35.60;50.90;;;;;;4942608;28;20202;-82
2023/07/17 12:01:46;;;;;;;0.53;0.53;;;35.50;51.10;;;;;;4947048;28;20449;-81
2023/07/17 12:04:20;;;;;;;1.45;0.60;;;35.50;51.50;;;;;;4957468;28;20198;-83
2023/07/17 12:06:50;;;;;;;0.30;0.30;;;35.50;51.60;;;;;;4942138;28;20199;-82
2023/07/17 12:09:19;;;;;;;3.03;1.08;;;35.50;51.70;;;;;;4950863;28;20205;-82
2023/07/17 12:11:48;;;;;;;0.45;0.40;;;35.60;51.80;;;;;;4949691;28;20232;-82
2023/07/17 12:14:18;;;;;;;0.95;0.65;;;35.70;51.90;;;;;;4945544;29;20205;-83
2023/07/17 12:16:47;;;;;;;1.65;0.63;;;35.80;51.80;;;;;;4945493;29;20569;-84
2023/07/17 12:19:16;;;;;;;0.60;0.60;;;35.80;51.70;;;;;;4946978;28;20203;-83
2023/07/17 12:21:44;;;;;;;0.43;0.43;;;35.80;51.50;;;;;;4936068;28;20211;-82
2023/07/17 12:24:15;;;;;;;0.68;0.47;;;35.80;51.00;;;;;;4939685;28;20226;-82
2023/07/17 12:26:43;;;;;;;1.33;0.80;;;35.70;50.90;;;;;;4933332;28;20719;-80
2023/07/17 12:29:12;;;;;;;0.50;0.50;;;35.70;50.90;;;;;;4943425;28;20232;-81
2023/07/17 12:31:40;;;;;;;0.50;0.50;;;35.80;51.00;;;;;;4939805;28;20221;-81
2023/07/17 12:34:10;;;;;;;1.00;0.77;;;35.80;50.90;;;;;;4950195;28;20190;-81
2023/07/17 12:36:38;;;;;;;1.23;0.60;;;35.90;51.00;;;;;;4949886;28;20322;-81
2023/07/17 12:39:15;;;;;;;0.63;0.63;;;35.90;50.60;;;;;;4944288;28;20249;-82
2023/07/17 12:41:45;;;;;;;4.07;0.43;;;36.00;50.50;;;;;;4939632;28;20291;-81
2023/07/17 12:44:13;;;;;;;0.40;0.40;;;36.00;50.60;;;;;;4940647;28;20279;-82
2023/07/17 12:46:41;;;;;;;1.10;0.52;;;36.00;50.20;;;;;;4942755;28;20202;-82
2023/07/17 12:49:12;;;;;;;1.10;1.00;;;36.00;50.20;;;;;;4948631;28;20233;-82
2023/07/17 12:51:41;;;;;;;1.35;0.73;;;36.00;50.30;;;;;;4944443;28;20196;-86
2023/07/17 12:54:10;;;;;;;0.68;0.65;;;36.00;50.30;;;;;;4942169;28;20692;-81
2023/07/17 12:56:41;;;;;;;0.38;0.38;;;36.00;50.20;;;;;;4938755;28;20666;-81
2023/07/17 12:59:10;;;;;;;0.60;0.43;;;35.90;50.30;;;;;;4947656;28;20206;-82
2023/07/17 13:01:39;;;;;;;0.85;0.50;;;35.90;50.30;;;;;;4947902;28;20214;-83